createdAt,value
2019-02-21T00:00:24.183Z,7.40
2019-02-21T00:01:18.416Z,7.60
2019-02-21T00:02:18.409Z,7.90
2019-02-21T00:03:18.406Z,7.60
2019-02-21T00:04:18.397Z,7.80
2019-02-21T00:05:18.390Z,8.00
2019-02-21T00:06:18.380Z,8.00
2019-02-21T00:07:18.376Z,8.30
2019-02-21T00:08:18.366Z,8.60
2019-02-21T00:09:18.359Z,8.20
2019-02-21T00:10:18.351Z,8.20
2019-02-21T00:11:18.345Z,8.40
2019-02-21T00:12:18.400Z,8.30
2019-02-21T00:13:18.332Z,8.70
2019-02-21T00:14:18.324Z,8.80
2019-02-21T00:15:18.317Z,8.90
2019-02-21T00:16:18.307Z,8.70
2019-02-21T00:17:18.300Z,8.30
2019-02-21T00:18:18.299Z,8.60
2019-02-21T00:19:18.292Z,8.50
2019-02-21T00:20:18.280Z,8.90
2019-02-21T00:21:18.275Z,9.00
2019-02-21T00:22:18.273Z,9.10
2019-02-21T00:23:18.266Z,8.90
2019-02-21T00:24:18.254Z,9.20
2019-02-21T00:25:18.243Z,9.10
2019-02-21T00:26:18.236Z,9.10
2019-02-21T00:27:18.231Z,9.40
2019-02-21T00:28:18.223Z,9.50
2019-02-21T00:29:18.239Z,8.80
2019-02-21T00:30:18.208Z,9.30
2019-02-21T00:31:18.199Z,9.50
2019-02-21T00:32:18.195Z,9.60
2019-02-21T00:33:18.191Z,9.50
2019-02-21T00:34:18.180Z,9.80
2019-02-21T00:35:18.179Z,9.60
2019-02-21T00:36:18.169Z,9.60
2019-02-21T00:37:18.159Z,9.50
2019-02-21T00:38:18.151Z,9.10
2019-02-21T00:39:18.145Z,9.60
2019-02-21T00:40:18.137Z,9.60
2019-02-21T00:41:18.132Z,9.50
2019-02-21T00:42:18.123Z,9.70
2019-02-21T00:43:18.122Z,10.10
2019-02-21T00:44:18.112Z,9.90
2019-02-21T00:45:18.102Z,9.90
2019-02-21T00:46:18.093Z,9.70
2019-02-21T00:47:18.089Z,9.90
2019-02-21T00:48:18.084Z,9.30
2019-02-21T00:49:18.077Z,9.70
2019-02-21T00:50:18.066Z,9.20
2019-02-21T00:51:18.060Z,9.10
2019-02-21T00:52:18.063Z,9.40
2019-02-21T00:53:18.048Z,8.90
2019-02-21T00:54:18.036Z,9.80
2019-02-21T00:55:18.032Z,9.40
2019-02-21T00:56:18.024Z,9.30
2019-02-21T00:57:18.019Z,9.30
2019-02-21T00:58:18.009Z,9.60
2019-02-21T00:59:18.005Z,8.90
2019-02-21T01:00:18.002Z,9.00
2019-02-21T01:01:20.692Z,9.20
2019-02-21T01:02:17.986Z,9.00
2019-02-21T01:03:17.974Z,9.00
2019-02-21T01:04:17.972Z,8.60
2019-02-21T01:05:17.962Z,9.20
2019-02-21T01:06:17.952Z,8.80
2019-02-21T01:07:17.950Z,9.60
2019-02-21T01:08:17.962Z,9.20
2019-02-21T01:09:17.931Z,8.90
2019-02-21T01:10:17.924Z,9.40
2019-02-21T01:11:17.918Z,8.80
2019-02-21T01:12:17.912Z,8.60
2019-02-21T01:13:17.904Z,8.80
2019-02-21T01:14:17.900Z,9.30
2019-02-21T01:15:17.896Z,8.50
2019-02-21T01:16:17.888Z,8.60
2019-02-21T01:17:17.882Z,8.60
2019-02-21T01:18:17.866Z,8.50
2019-02-21T01:19:17.864Z,8.50
2019-02-21T01:20:17.852Z,8.90
2019-02-21T01:21:17.848Z,8.60
2019-02-21T01:22:17.845Z,8.80
2019-02-21T01:23:17.831Z,8.50
2019-02-21T01:24:17.828Z,8.50
2019-02-21T01:25:17.821Z,8.60
2019-02-21T01:26:17.900Z,8.60
2019-02-21T01:27:17.810Z,8.30
2019-02-21T01:28:17.801Z,8.40
2019-02-21T01:29:17.790Z,8.10
2019-02-21T01:30:17.786Z,8.20
2019-02-21T01:31:17.780Z,8.50
2019-02-21T01:32:17.774Z,7.90
2019-02-21T01:33:17.761Z,8.10
2019-02-21T01:34:17.757Z,7.90
2019-02-21T01:35:17.749Z,7.90
2019-02-21T01:36:17.743Z,8.00
2019-02-21T01:37:17.737Z,7.90
2019-02-21T01:38:17.728Z,7.60
2019-02-21T01:39:17.724Z,7.80
2019-02-21T01:40:17.713Z,7.90
2019-02-21T01:41:17.704Z,7.90
2019-02-21T01:42:17.699Z,7.90
2019-02-21T01:43:17.691Z,7.70
2019-02-21T01:44:17.688Z,7.80
2019-02-21T01:45:17.682Z,7.80
2019-02-21T01:46:17.670Z,8.00
2019-02-21T01:47:17.663Z,7.40
2019-02-21T01:48:17.656Z,7.70
2019-02-21T01:49:17.654Z,7.10
2019-02-21T01:50:17.652Z,8.00
2019-02-21T01:51:17.637Z,7.60
2019-02-21T01:52:17.628Z,7.90
2019-02-21T01:53:17.619Z,8.00
2019-02-21T01:54:17.614Z,8.30
2019-02-21T01:55:17.607Z,8.30
2019-02-21T01:56:17.601Z,8.00
2019-02-21T01:57:17.593Z,7.60
2019-02-21T01:58:17.586Z,8.00
2019-02-21T01:59:17.580Z,8.10
2019-02-21T02:00:17.573Z,7.80
2019-02-21T02:01:17.564Z,8.20
2019-02-21T02:02:17.557Z,8.30
2019-02-21T02:03:17.553Z,8.30
2019-02-21T02:04:17.544Z,8.20
2019-02-21T02:05:17.537Z,7.90
2019-02-21T02:06:17.531Z,7.90
2019-02-21T02:07:17.524Z,8.40
2019-02-21T02:08:17.516Z,8.10
2019-02-21T02:09:17.508Z,8.20
2019-02-21T02:10:17.504Z,8.20
2019-02-21T02:11:17.496Z,8.00
2019-02-21T02:12:17.486Z,8.30
2019-02-21T02:13:24.495Z,8.50
2019-02-21T02:14:17.471Z,8.50
2019-02-21T02:15:17.465Z,8.60
2019-02-21T02:16:17.494Z,8.20
2019-02-21T02:17:17.452Z,8.70
2019-02-21T02:18:17.446Z,8.30
2019-02-21T02:19:17.438Z,8.20
2019-02-21T02:20:17.434Z,9.00
2019-02-21T02:21:17.424Z,8.80
2019-02-21T02:22:17.420Z,8.40
2019-02-21T02:23:17.410Z,8.90
2019-02-21T02:24:17.409Z,9.20
2019-02-21T02:26:56.497Z,9.00
2019-02-21T02:27:56.472Z,9.40
2019-02-21T02:29:49.349Z,9.00
2019-02-21T02:30:49.333Z,9.30
2019-02-21T02:32:42.206Z,9.50
2019-02-21T02:33:42.191Z,9.50
2019-02-21T02:35:35.069Z,9.60
2019-02-21T02:36:35.049Z,9.90
2019-02-21T02:38:27.923Z,10.20
2019-02-21T02:39:27.909Z,10.10
2019-02-21T02:41:21.293Z,10.10
2019-02-21T02:42:21.283Z,10.40
2019-02-21T02:44:14.723Z,10.60
2019-02-21T02:45:14.704Z,10.20
2019-02-21T02:47:07.590Z,11.50
2019-02-21T02:48:07.575Z,11.10
2019-02-21T02:50:00.454Z,11.40
2019-02-21T02:51:00.436Z,11.50
2019-02-21T02:52:53.330Z,11.20
2019-02-21T02:53:53.314Z,11.80
2019-02-21T02:55:46.214Z,11.40
2019-02-21T02:56:46.171Z,11.90
2019-02-21T02:57:46.164Z,12.20
2019-02-21T02:58:46.157Z,12.20
2019-02-21T02:59:46.149Z,12.20
2019-02-21T03:00:46.143Z,12.30
2019-02-21T03:01:46.135Z,12.10
2019-02-21T03:02:46.127Z,12.80
2019-02-21T03:03:46.119Z,12.50
2019-02-21T03:04:46.164Z,12.50
2019-02-21T03:05:46.105Z,12.80
2019-02-21T03:06:46.098Z,12.30
2019-02-21T03:07:46.095Z,13.10
2019-02-21T03:08:46.085Z,13.00
2019-02-21T03:09:46.084Z,12.80
2019-02-21T03:10:46.074Z,13.10
2019-02-21T03:11:46.066Z,13.50
2019-02-21T03:12:46.059Z,13.70
2019-02-21T03:13:46.049Z,12.70
2019-02-21T03:14:46.045Z,13.60
2019-02-21T03:15:46.036Z,13.30
2019-02-21T03:16:46.028Z,14.10
2019-02-21T03:17:46.022Z,13.80
2019-02-21T03:18:46.015Z,14.30
2019-02-21T03:19:46.012Z,14.20
2019-02-21T03:20:46.003Z,14.60
2019-02-21T03:21:45.996Z,14.40
2019-02-21T03:22:45.991Z,13.60
2019-02-21T03:23:45.980Z,14.40
2019-02-21T03:24:45.977Z,13.90
2019-02-21T03:25:45.968Z,14.40
2019-02-21T03:26:45.958Z,15.10
2019-02-21T03:27:45.954Z,15.60
2019-02-21T03:28:45.949Z,15.00
2019-02-21T03:29:45.936Z,14.90
2019-02-21T03:30:45.934Z,14.60
2019-02-21T03:31:54.754Z,15.70
2019-02-21T03:32:45.919Z,14.50
2019-02-21T03:33:45.958Z,15.30
2019-02-21T03:34:45.912Z,14.90
2019-02-21T03:35:45.907Z,15.20
2019-02-21T03:36:45.928Z,15.50
2019-02-21T03:37:45.938Z,15.90
2019-02-21T03:38:45.876Z,16.00
2019-02-21T03:39:45.867Z,15.60
2019-02-21T03:40:45.859Z,14.80
2019-02-21T03:41:45.853Z,16.10
2019-02-21T03:42:45.847Z,16.10
2019-02-21T03:43:45.837Z,16.20
2019-02-21T03:44:45.832Z,16.40
2019-02-21T03:45:45.824Z,16.10
2019-02-21T03:46:45.818Z,15.90
2019-02-21T03:47:45.809Z,16.40
2019-02-21T03:48:45.802Z,16.40
2019-02-21T03:49:45.801Z,16.30
2019-02-21T03:50:45.790Z,16.20
2019-02-21T03:51:45.786Z,16.20
2019-02-21T03:52:45.811Z,16.40
2019-02-21T03:53:45.769Z,16.80
2019-02-21T03:54:45.760Z,16.40
2019-02-21T03:55:45.775Z,16.20
2019-02-21T03:56:45.747Z,17.20
2019-02-21T03:57:45.741Z,16.50
2019-02-21T03:58:45.733Z,16.70
2019-02-21T03:59:45.730Z,16.70
2019-02-21T04:00:45.720Z,16.30
2019-02-21T04:01:45.713Z,17.10
2019-02-21T04:02:45.705Z,17.20
2019-02-21T04:03:45.698Z,16.90
2019-02-21T04:04:45.693Z,17.00
2019-02-21T04:05:45.684Z,17.60
2019-02-21T04:06:45.675Z,16.90
2019-02-21T04:07:45.669Z,17.70
2019-02-21T04:08:45.667Z,17.80
2019-02-21T04:09:45.659Z,17.60
2019-02-21T04:10:45.648Z,17.50
2019-02-21T04:11:45.645Z,17.70
2019-02-21T04:12:45.635Z,18.00
2019-02-21T04:13:45.627Z,17.90
2019-02-21T04:14:45.621Z,18.20
2019-02-21T04:15:45.615Z,18.90
2019-02-21T04:16:45.607Z,18.20
2019-02-21T04:17:45.599Z,18.70
2019-02-21T04:18:45.594Z,19.50
2019-02-21T04:19:45.585Z,18.00
2019-02-21T04:20:45.578Z,19.40
2019-02-21T04:21:45.572Z,19.50
2019-02-21T04:22:45.565Z,19.90
2019-02-21T04:23:45.558Z,20.20
2019-02-21T04:24:45.548Z,19.70
2019-02-21T04:25:45.543Z,19.20
2019-02-21T04:26:45.541Z,19.50
2019-02-21T04:27:45.528Z,20.10
2019-02-21T04:28:45.905Z,20.80
2019-02-21T04:29:45.517Z,20.90
2019-02-21T04:30:45.508Z,19.70
2019-02-21T04:31:45.500Z,20.70
2019-02-21T04:32:45.496Z,20.60
2019-02-21T04:33:45.488Z,20.10
2019-02-21T04:34:45.480Z,21.00
2019-02-21T04:35:45.473Z,20.90
2019-02-21T04:36:45.471Z,21.40
2019-02-21T04:37:45.457Z,21.50
2019-02-21T04:38:45.451Z,21.20
2019-02-21T04:39:45.441Z,21.10
2019-02-21T04:40:45.438Z,21.70
2019-02-21T04:41:45.432Z,22.00
2019-02-21T04:42:45.425Z,22.20
2019-02-21T04:43:45.425Z,22.10
2019-02-21T04:44:45.410Z,22.70
2019-02-21T04:45:45.403Z,22.30
2019-02-21T04:46:45.395Z,22.40
2019-02-21T04:47:45.387Z,22.10
2019-02-21T04:48:45.379Z,23.30
2019-02-21T04:49:45.374Z,22.00
2019-02-21T04:50:45.366Z,22.90
2019-02-21T04:51:45.358Z,23.10
2019-02-21T04:52:45.352Z,23.10
2019-02-21T04:53:45.345Z,23.50
2019-02-21T04:54:45.340Z,23.40
2019-02-21T04:55:45.329Z,23.40
2019-02-21T04:56:45.322Z,23.50
2019-02-21T04:57:45.317Z,24.10
2019-02-21T04:58:45.307Z,24.50
2019-02-21T04:59:45.301Z,24.30
2019-02-21T05:00:45.294Z,24.10
2019-02-21T05:01:45.288Z,25.50
2019-02-21T05:02:45.279Z,24.90
2019-02-21T05:03:45.273Z,25.50
2019-02-21T05:04:45.268Z,25.70
2019-02-21T05:05:45.265Z,25.80
2019-02-21T05:06:45.250Z,26.10
2019-02-21T05:07:45.245Z,25.70
2019-02-21T05:08:45.238Z,26.10
2019-02-21T05:09:57.024Z,26.40
2019-02-21T05:10:45.231Z,27.60
2019-02-21T05:11:45.213Z,27.20
2019-02-21T05:12:45.207Z,26.20
2019-02-21T05:13:45.199Z,28.10
2019-02-21T05:14:45.193Z,27.80
2019-02-21T05:15:45.189Z,27.20
2019-02-21T05:16:45.184Z,27.60
2019-02-21T05:17:45.175Z,27.80
2019-02-21T05:18:45.165Z,28.00
2019-02-21T05:19:45.158Z,29.10
2019-02-21T05:20:45.152Z,28.20
2019-02-21T05:21:45.152Z,28.60
2019-02-21T05:22:45.136Z,30.60
2019-02-21T05:23:45.130Z,29.90
2019-02-21T05:24:45.127Z,29.60
2019-02-21T05:25:45.115Z,29.70
2019-02-21T05:26:45.107Z,30.50
2019-02-21T05:27:45.104Z,30.00
2019-02-21T05:28:45.097Z,30.10
2019-02-21T05:29:45.084Z,31.40
2019-02-21T05:30:45.096Z,31.40
2019-02-21T05:31:45.075Z,29.60
2019-02-21T05:32:45.065Z,30.00
2019-02-21T05:33:45.059Z,30.30
2019-02-21T05:34:45.051Z,29.50
2019-02-21T05:35:45.050Z,30.70
2019-02-21T05:36:45.037Z,30.80
2019-02-21T05:37:45.032Z,32.20
2019-02-21T05:38:45.025Z,31.00
2019-02-21T05:39:45.015Z,32.10
2019-02-21T05:40:45.013Z,33.30
2019-02-21T05:41:45.013Z,32.70
2019-02-21T05:42:44.997Z,31.60
2019-02-21T05:43:44.990Z,31.50
2019-02-21T05:44:44.979Z,31.60
2019-02-21T05:45:46.920Z,30.60
2019-02-21T05:46:44.970Z,31.30
2019-02-21T05:47:44.960Z,31.40
2019-02-21T05:48:44.952Z,32.00
2019-02-21T05:49:44.945Z,31.80
2019-02-21T05:50:44.940Z,31.20
2019-02-21T05:51:44.931Z,30.90
2019-02-21T05:52:44.924Z,31.20
2019-02-21T05:53:44.917Z,31.10
2019-02-21T05:54:44.910Z,30.60
2019-02-21T05:55:44.904Z,31.60
2019-02-21T05:56:44.894Z,32.50
2019-02-21T05:57:44.890Z,32.60
2019-02-21T05:58:44.887Z,32.00
2019-02-21T05:59:44.874Z,32.30
2019-02-21T06:00:44.865Z,31.90
2019-02-21T06:01:44.858Z,32.00
2019-02-21T06:02:53.134Z,31.70
2019-02-21T06:03:44.846Z,32.90
2019-02-21T06:04:44.842Z,33.60
2019-02-21T06:05:44.836Z,32.10
2019-02-21T06:06:44.823Z,33.90
2019-02-21T06:07:44.815Z,33.20
2019-02-21T06:08:44.809Z,32.10
2019-02-21T06:09:44.802Z,33.30
2019-02-21T06:10:44.795Z,33.10
2019-02-21T06:11:44.785Z,33.70
2019-02-21T06:12:44.779Z,33.60
2019-02-21T06:13:44.865Z,33.00
2019-02-21T06:14:44.764Z,33.40
2019-02-21T06:15:44.759Z,33.50
2019-02-21T06:16:44.749Z,33.00
2019-02-21T06:17:44.743Z,32.80
2019-02-21T06:18:44.739Z,33.60
2019-02-21T06:19:44.731Z,33.90
2019-02-21T06:20:44.720Z,34.20
2019-02-21T06:21:44.715Z,34.70
2019-02-21T06:22:44.707Z,34.90
2019-02-21T06:23:44.745Z,35.00
2019-02-21T06:24:44.691Z,34.10
2019-02-21T06:25:52.020Z,33.40
2019-02-21T06:26:44.685Z,34.70
2019-02-21T06:27:44.670Z,33.40
2019-02-21T06:28:44.665Z,34.60
2019-02-21T06:29:44.656Z,34.20
2019-02-21T06:30:44.651Z,33.40
2019-02-21T06:31:44.641Z,33.70
2019-02-21T06:32:44.635Z,34.50
2019-02-21T06:33:44.631Z,33.70
2019-02-21T06:34:44.619Z,32.80
2019-02-21T06:35:44.611Z,33.50
2019-02-21T06:36:44.614Z,34.50
2019-02-21T06:37:44.597Z,34.00
2019-02-21T06:38:44.590Z,33.50
2019-02-21T06:39:44.583Z,33.20
2019-02-21T06:40:47.001Z,33.70
2019-02-21T06:41:44.573Z,34.10
2019-02-21T06:42:44.563Z,34.10
2019-02-21T06:43:44.557Z,33.00
2019-02-21T06:44:44.557Z,34.00
2019-02-21T06:45:44.545Z,33.00
2019-02-21T06:46:44.533Z,32.60
2019-02-21T06:47:44.527Z,33.50
2019-02-21T06:48:44.517Z,33.00
2019-02-21T06:49:44.514Z,32.80
2019-02-21T06:50:44.519Z,33.00
2019-02-21T06:51:44.499Z,33.00
2019-02-21T06:52:44.489Z,32.80
2019-02-21T06:53:44.483Z,33.80
2019-02-21T06:54:44.475Z,32.60
2019-02-21T06:55:44.471Z,33.50
2019-02-21T06:56:44.461Z,32.90
2019-02-21T06:57:44.452Z,33.20
2019-02-21T06:58:44.449Z,33.30
2019-02-21T06:59:45.392Z,32.90
2019-02-21T07:00:46.183Z,33.20
2019-02-21T07:01:44.427Z,32.40
2019-02-21T07:02:44.420Z,32.30
2019-02-21T07:03:44.412Z,32.10
2019-02-21T07:04:44.406Z,31.70
2019-02-21T07:05:44.399Z,33.20
2019-02-21T07:06:44.389Z,32.50
2019-02-21T07:07:44.383Z,31.80
2019-02-21T07:08:44.380Z,32.10
2019-02-21T07:09:44.372Z,32.20
2019-02-21T07:10:44.363Z,31.60
2019-02-21T07:11:45.935Z,31.80
2019-02-21T07:12:44.351Z,32.20
2019-02-21T07:13:44.341Z,31.40
2019-02-21T07:14:44.335Z,31.90
2019-02-21T07:15:44.328Z,31.40
2019-02-21T07:16:44.322Z,31.70
2019-02-21T07:17:49.227Z,32.60
2019-02-21T07:18:44.308Z,31.30
2019-02-21T07:19:44.299Z,31.10
2019-02-21T07:20:44.297Z,30.50
2019-02-21T07:21:44.290Z,31.10
2019-02-21T07:22:44.280Z,31.60
2019-02-21T07:23:44.274Z,30.90
2019-02-21T07:24:44.265Z,30.70
2019-02-21T07:25:44.258Z,30.70
2019-02-21T07:26:44.253Z,30.50
2019-02-21T07:27:44.246Z,30.70
2019-02-21T07:28:44.237Z,30.60
2019-02-21T07:29:44.231Z,30.60
2019-02-21T07:30:44.221Z,30.80
2019-02-21T07:31:44.215Z,30.70
2019-02-21T07:32:44.209Z,30.30
2019-02-21T07:33:44.202Z,29.70
2019-02-21T07:34:44.194Z,29.80
2019-02-21T07:35:44.187Z,30.00
2019-02-21T07:36:44.181Z,28.20
2019-02-21T07:37:44.178Z,29.60
2019-02-21T07:38:44.174Z,29.50
2019-02-21T07:39:44.159Z,29.90
2019-02-21T07:40:44.159Z,29.70
2019-02-21T07:41:44.145Z,29.70
2019-02-21T07:42:44.138Z,30.30
2019-02-21T07:43:44.140Z,30.50
2019-02-21T07:44:45.384Z,29.70
2019-02-21T07:45:44.121Z,29.60
2019-02-21T07:46:46.285Z,30.60
2019-02-21T07:47:44.103Z,30.00
2019-02-21T07:48:44.096Z,30.10
2019-02-21T07:49:44.093Z,29.50
2019-02-21T07:50:44.086Z,29.20
2019-02-21T07:51:44.080Z,29.10
2019-02-21T07:52:44.069Z,30.10
2019-02-21T07:53:44.068Z,30.50
2019-02-21T07:54:44.055Z,30.40
2019-02-21T07:55:44.051Z,29.10
2019-02-21T07:56:44.045Z,30.80
2019-02-21T07:57:44.037Z,30.10
2019-02-21T07:58:44.032Z,29.10
2019-02-21T07:59:44.022Z,29.50
2019-02-21T08:00:44.016Z,29.30
2019-02-21T08:01:44.010Z,29.60
2019-02-21T08:02:44.002Z,28.80
2019-02-21T08:03:47.938Z,30.50
2019-02-21T08:04:43.990Z,30.10
2019-02-21T08:05:43.979Z,29.70
2019-02-21T08:06:43.973Z,30.00
2019-02-21T08:07:43.965Z,30.60
2019-02-21T08:08:45.008Z,30.90
2019-02-21T08:09:43.951Z,30.80
2019-02-21T08:10:43.944Z,30.90
2019-02-21T08:11:43.939Z,31.40
2019-02-21T08:12:43.938Z,31.10
2019-02-21T08:13:43.926Z,31.70
2019-02-21T08:14:43.917Z,33.70
2019-02-21T08:15:43.910Z,31.60
2019-02-21T08:16:43.906Z,31.30
2019-02-21T08:17:43.925Z,33.00
2019-02-21T08:18:43.968Z,30.70
2019-02-21T08:19:43.890Z,32.00
2019-02-21T08:20:43.878Z,32.90
2019-02-21T08:21:43.926Z,33.70
2019-02-21T08:22:43.858Z,33.30
2019-02-21T08:23:50.589Z,32.60
2019-02-21T08:24:43.849Z,32.70
2019-02-21T08:25:43.851Z,32.90
2019-02-21T08:26:43.842Z,32.50
2019-02-21T08:27:43.829Z,32.60
2019-02-21T08:28:43.824Z,32.50
2019-02-21T08:29:43.817Z,33.10
2019-02-21T08:30:43.811Z,33.50
2019-02-21T08:31:43.802Z,33.70
2019-02-21T08:32:43.798Z,33.80
2019-02-21T08:33:45.666Z,33.00
2019-02-21T08:34:43.783Z,33.60
2019-02-21T08:35:43.773Z,33.50
2019-02-21T08:36:43.770Z,33.60
2019-02-21T08:37:43.760Z,35.30
2019-02-21T08:38:43.753Z,36.00
2019-02-21T08:39:43.747Z,34.60
2019-02-21T08:40:43.744Z,34.40
2019-02-21T08:41:43.732Z,34.30
2019-02-21T08:42:43.723Z,34.30
2019-02-21T08:43:43.722Z,34.20
2019-02-21T08:44:43.718Z,33.70
2019-02-21T08:45:43.716Z,33.20
2019-02-21T08:46:43.701Z,32.70
2019-02-21T08:47:43.697Z,33.60
2019-02-21T08:48:43.690Z,33.50
2019-02-21T08:49:43.678Z,34.60
2019-02-21T08:50:43.671Z,34.70
2019-02-21T08:51:43.669Z,34.00
2019-02-21T08:52:43.661Z,33.80
2019-02-21T08:53:43.651Z,34.10
2019-02-21T08:54:43.642Z,33.80
2019-02-21T08:55:43.641Z,35.00
2019-02-21T08:56:43.635Z,35.00
2019-02-21T08:57:43.632Z,35.70
2019-02-21T08:58:43.621Z,33.30
2019-02-21T08:59:43.611Z,33.20
2019-02-21T09:00:43.607Z,34.40
2019-02-21T09:01:43.602Z,34.60
2019-02-21T09:02:43.594Z,35.10
2019-02-21T09:03:43.583Z,33.50
2019-02-21T09:04:43.729Z,33.20
2019-02-21T09:05:43.570Z,33.50
2019-02-21T09:06:43.565Z,33.70
2019-02-21T09:07:46.100Z,34.30
2019-02-21T09:08:43.551Z,32.90
2019-02-21T09:09:43.545Z,34.00
2019-02-21T09:10:43.538Z,33.00
2019-02-21T09:11:43.532Z,32.00
2019-02-21T09:12:47.780Z,33.40
2019-02-21T09:13:43.524Z,33.60
2019-02-21T09:14:43.512Z,33.00
2019-02-21T09:15:46.336Z,33.10
2019-02-21T09:16:43.503Z,31.90
2019-02-21T09:17:43.493Z,32.80
2019-02-21T09:18:43.485Z,33.00
2019-02-21T09:19:43.479Z,34.00
2019-02-21T09:20:43.476Z,32.70
2019-02-21T09:21:43.473Z,32.00
2019-02-21T09:22:43.483Z,32.30
2019-02-21T09:23:43.505Z,33.10
2019-02-21T09:24:43.444Z,32.60
2019-02-21T09:25:43.443Z,31.10
2019-02-21T09:26:43.436Z,30.60
2019-02-21T09:27:43.428Z,31.20
2019-02-21T09:28:43.421Z,31.00
2019-02-21T09:29:43.416Z,31.80
2019-02-21T09:30:43.409Z,30.80
2019-02-21T09:31:43.402Z,31.00
2019-02-21T09:32:43.405Z,31.50
2019-02-21T09:33:43.908Z,30.40
2019-02-21T09:34:43.384Z,31.10
2019-02-21T09:35:43.681Z,30.80
2019-02-21T09:36:44.268Z,30.50
2019-02-21T09:37:43.366Z,30.30
2019-02-21T09:38:43.362Z,30.90
2019-02-21T09:39:43.352Z,30.00
2019-02-21T09:40:43.347Z,29.10
2019-02-21T09:41:43.341Z,30.40
2019-02-21T09:42:43.332Z,29.70
2019-02-21T09:43:43.330Z,28.90
2019-02-21T09:44:43.322Z,28.50
2019-02-21T09:45:43.319Z,28.40
2019-02-21T09:46:43.309Z,28.50
2019-02-21T09:47:43.305Z,28.60
2019-02-21T09:48:43.301Z,28.30
2019-02-21T09:49:43.294Z,30.00
2019-02-21T09:50:43.286Z,29.50
2019-02-21T09:51:43.285Z,28.10
2019-02-21T09:52:43.273Z,27.70
2019-02-21T09:53:43.314Z,28.50
2019-02-21T09:54:43.263Z,27.50
2019-02-21T09:55:43.256Z,28.70
2019-02-21T09:56:52.317Z,27.80
2019-02-21T09:57:43.252Z,26.70
2019-02-21T09:58:45.725Z,27.60
2019-02-21T09:59:43.231Z,27.80
2019-02-21T10:00:43.228Z,27.70
2019-02-21T10:01:43.226Z,26.90
2019-02-21T10:02:43.216Z,26.50
2019-02-21T10:03:44.248Z,26.20
2019-02-21T10:04:43.202Z,26.40
2019-02-21T10:05:43.199Z,26.90
2019-02-21T10:06:43.270Z,26.20
2019-02-21T10:07:43.185Z,25.70
2019-02-21T10:08:43.334Z,26.20
2019-02-21T10:09:43.175Z,26.00
2019-02-21T10:10:43.175Z,25.80
2019-02-21T10:11:43.162Z,25.70
2019-02-21T10:12:43.157Z,26.10
2019-02-21T10:13:43.150Z,25.60
2019-02-21T10:14:43.145Z,24.60
2019-02-21T10:15:43.141Z,25.90
2019-02-21T10:16:43.135Z,24.90
2019-02-21T10:17:43.128Z,25.60
2019-02-21T10:18:43.122Z,24.10
2019-02-21T10:19:43.114Z,24.40
2019-02-21T10:20:43.108Z,24.30
2019-02-21T10:21:43.106Z,24.40
2019-02-21T10:22:43.096Z,25.50
2019-02-21T10:23:43.091Z,25.20
2019-02-21T10:24:43.086Z,24.70
2019-02-21T10:25:43.084Z,25.10
2019-02-21T10:26:43.075Z,24.70
2019-02-21T10:27:43.074Z,24.60
2019-02-21T10:28:45.066Z,24.30
2019-02-21T10:29:43.063Z,25.20
2019-02-21T10:30:43.053Z,24.20
2019-02-21T10:31:43.054Z,24.00
2019-02-21T10:32:43.112Z,24.60
2019-02-21T10:33:47.030Z,24.40
2019-02-21T10:34:43.586Z,23.50
2019-02-21T10:35:43.025Z,24.20
2019-02-21T10:36:43.015Z,23.70
2019-02-21T10:37:43.013Z,24.10
2019-02-21T10:38:43.017Z,23.20
2019-02-21T10:39:43.001Z,23.70
2019-02-21T10:40:42.993Z,22.50
2019-02-21T10:41:42.988Z,23.00
2019-02-21T10:42:42.981Z,22.70
2019-02-21T10:43:42.973Z,22.70
2019-02-21T10:44:42.970Z,22.50
2019-02-21T10:45:47.962Z,22.70
2019-02-21T10:46:42.970Z,22.70
2019-02-21T10:47:42.952Z,22.70
2019-02-21T10:48:42.948Z,22.80
2019-02-21T10:49:42.939Z,22.10
2019-02-21T10:50:42.936Z,22.40
2019-02-21T10:51:43.160Z,21.20
2019-02-21T10:52:42.926Z,22.30
2019-02-21T10:53:42.918Z,22.10
2019-02-21T10:54:42.911Z,22.50
2019-02-21T10:55:42.902Z,22.30
2019-02-21T10:56:42.898Z,22.50
2019-02-21T10:57:45.304Z,21.60
2019-02-21T10:58:42.890Z,21.90
2019-02-21T10:59:46.580Z,21.90
2019-02-21T11:00:42.877Z,22.30
2019-02-21T11:01:42.905Z,21.60
2019-02-21T11:02:42.866Z,21.10
2019-02-21T11:03:42.861Z,21.00
2019-02-21T11:04:54.085Z,21.20
2019-02-21T11:05:42.850Z,21.30
2019-02-21T11:06:42.840Z,21.20
2019-02-21T11:07:42.834Z,20.40
2019-02-21T11:08:42.832Z,20.90
2019-02-21T11:09:42.830Z,21.00
2019-02-21T11:10:42.817Z,21.20
2019-02-21T11:11:42.814Z,19.70
2019-02-21T11:12:42.808Z,19.80
2019-02-21T11:13:42.822Z,19.10
2019-02-21T11:14:47.618Z,19.00
2019-02-21T11:15:42.791Z,18.80
2019-02-21T11:16:42.783Z,19.00
2019-02-21T11:17:42.780Z,19.10
2019-02-21T11:18:42.772Z,19.30
2019-02-21T11:19:42.780Z,18.10
2019-02-21T11:20:42.761Z,19.10
2019-02-21T11:21:42.759Z,20.30
2019-02-21T11:22:42.751Z,19.60
2019-02-21T11:23:42.748Z,19.40
2019-02-21T11:24:42.742Z,18.90
2019-02-21T11:25:42.738Z,19.50
2019-02-21T11:26:42.731Z,18.70
2019-02-21T11:27:42.726Z,19.30
2019-02-21T11:28:42.720Z,19.20
2019-02-21T11:29:42.715Z,19.10
2019-02-21T11:30:42.710Z,18.80
2019-02-21T11:31:42.717Z,19.80
2019-02-21T11:32:42.700Z,18.60
2019-02-21T11:33:42.696Z,18.90
2019-02-21T11:34:42.712Z,18.60
2019-02-21T11:35:42.686Z,18.00
2019-02-21T11:36:42.678Z,18.10
2019-02-21T11:37:46.611Z,18.00
2019-02-21T11:38:42.669Z,17.50
2019-02-21T11:39:42.665Z,17.50
2019-02-21T11:40:42.662Z,17.50
2019-02-21T11:41:42.658Z,17.60
2019-02-21T11:42:42.652Z,17.20
2019-02-21T11:43:42.645Z,16.90
2019-02-21T11:44:42.641Z,17.20
2019-02-21T11:45:53.188Z,17.10
2019-02-21T11:46:42.634Z,17.60
2019-02-21T11:47:42.629Z,16.50
2019-02-21T11:48:42.622Z,16.80
2019-02-21T11:49:42.615Z,17.10
2019-02-21T11:50:42.609Z,16.80
2019-02-21T11:51:42.605Z,17.20
2019-02-21T11:52:42.606Z,17.20
2019-02-21T11:53:42.599Z,17.30
2019-02-21T11:54:42.592Z,17.10
2019-02-21T11:55:42.585Z,16.70
2019-02-21T11:56:42.582Z,17.00
2019-02-21T11:57:42.577Z,16.80
2019-02-21T11:58:42.572Z,16.60
2019-02-21T11:59:42.575Z,16.10
2019-02-21T12:00:42.558Z,15.60
2019-02-21T12:01:42.557Z,16.60
2019-02-21T12:02:42.550Z,16.10
2019-02-21T12:03:42.549Z,15.70
2019-02-21T12:04:42.542Z,16.20
2019-02-21T12:05:42.544Z,15.30
2019-02-21T12:06:42.533Z,15.50
2019-02-21T12:07:42.524Z,15.20
2019-02-21T12:08:42.528Z,15.00
2019-02-21T12:09:42.519Z,15.20
2019-02-21T12:10:42.513Z,15.10
2019-02-21T12:11:42.508Z,14.90
2019-02-21T12:12:42.503Z,14.80
2019-02-21T12:13:42.499Z,14.90
2019-02-21T12:14:42.491Z,14.50
2019-02-21T12:15:42.485Z,14.60
2019-02-21T12:16:42.548Z,14.80
2019-02-21T12:17:43.254Z,14.70
2019-02-21T12:18:42.473Z,14.60
2019-02-21T12:19:42.468Z,14.30
2019-02-21T12:20:42.465Z,14.60
2019-02-21T12:21:42.464Z,14.00
2019-02-21T12:22:42.458Z,13.30
2019-02-21T12:23:42.452Z,14.20
2019-02-21T12:24:42.448Z,13.90
2019-02-21T12:25:42.452Z,13.40
2019-02-21T12:26:42.437Z,13.80
2019-02-21T12:27:42.433Z,13.50
2019-02-21T12:28:42.430Z,13.80
2019-02-21T12:29:42.424Z,14.30
2019-02-21T12:30:42.420Z,14.30
2019-02-21T12:31:42.417Z,14.40
2019-02-21T12:32:42.415Z,14.30
2019-02-21T12:33:42.406Z,14.60
2019-02-21T12:34:42.399Z,14.10
2019-02-21T12:35:42.398Z,14.00
2019-02-21T12:36:42.405Z,13.30
2019-02-21T12:37:42.394Z,12.50
2019-02-21T12:38:42.387Z,13.00
2019-02-21T12:39:42.379Z,13.50
2019-02-21T12:40:42.370Z,13.00
2019-02-21T12:41:42.371Z,13.30
2019-02-21T12:42:42.364Z,13.50
2019-02-21T12:43:42.360Z,13.80
2019-02-21T12:44:42.355Z,13.30
2019-02-21T12:45:42.351Z,12.70
2019-02-21T12:46:42.345Z,12.90
2019-02-21T12:47:50.875Z,12.50
2019-02-21T12:48:42.335Z,12.00
2019-02-21T12:49:42.331Z,11.80
2019-02-21T12:50:44.472Z,12.20
2019-02-21T12:51:42.325Z,11.30
2019-02-21T12:52:42.323Z,11.30
2019-02-21T12:53:42.317Z,11.40
2019-02-21T12:54:42.312Z,11.00
2019-02-21T12:55:42.306Z,9.90
2019-02-21T12:56:42.322Z,9.50
2019-02-21T12:57:42.293Z,9.40
2019-02-21T12:58:45.064Z,8.70
2019-02-21T12:59:42.285Z,9.40
2019-02-21T13:00:42.285Z,8.80
2019-02-21T13:01:42.275Z,8.80
2019-02-21T13:02:42.271Z,8.80
2019-02-21T13:03:42.270Z,8.60
2019-02-21T13:04:42.261Z,9.10
2019-02-21T13:05:44.530Z,9.40
2019-02-21T13:06:42.247Z,8.80
2019-02-21T13:07:42.249Z,8.60
2019-02-21T13:08:42.242Z,8.70